createdAt,value
2023-05-22T00:00:54.948Z,2.80
2023-05-22T00:06:18.515Z,2.75
2023-05-22T00:11:40.414Z,2.70
2023-05-22T00:17:02.284Z,2.42
2023-05-22T00:22:28.355Z,3.17
2023-05-22T00:27:50.456Z,2.83
2023-05-22T00:33:12.983Z,3.42
2023-05-22T00:38:37.938Z,3.42
2023-05-22T00:43:59.958Z,2.83
2023-05-22T00:49:21.689Z,2.65
2023-05-22T00:54:45.023Z,2.63
2023-05-22T01:00:09.042Z,2.30
2023-05-22T01:05:31.743Z,3.05
2023-05-22T01:11:01.674Z,2.80
2023-05-22T01:16:29.806Z,2.95
2023-05-22T01:21:59.049Z,2.90
2023-05-22T01:32:44.660Z,2.90
2023-05-22T01:38:09.070Z,2.72
2023-05-22T01:43:32.123Z,3.08
2023-05-22T01:48:57.031Z,2.80
2023-05-22T01:54:24.194Z,2.85
2023-05-22T01:59:48.585Z,2.72
2023-05-22T02:05:13.748Z,2.85
2023-05-22T02:10:37.755Z,2.88
2023-05-22T02:16:00.482Z,3.00
2023-05-22T02:21:24.546Z,2.85
2023-05-22T02:26:47.827Z,3.28
2023-05-22T02:32:09.875Z,2.60
2023-05-22T02:37:34.115Z,2.58
2023-05-22T02:42:56.739Z,2.92
2023-05-22T02:48:18.846Z,2.70
2023-05-22T02:53:42.531Z,3.45
2023-05-22T02:59:04.582Z,3.42
2023-05-22T03:04:26.431Z,3.20
2023-05-22T03:09:49.827Z,3.25
2023-05-22T03:15:11.892Z,3.58
2023-05-22T03:20:36.467Z,3.55
2023-05-22T03:26:00.057Z,3.22
2023-05-22T03:31:26.307Z,3.47
2023-05-22T03:36:59.279Z,3.80
2023-05-22T03:42:22.730Z,3.20
2023-05-22T03:47:44.593Z,3.42
2023-05-22T03:53:07.016Z,3.53
2023-05-22T03:58:30.245Z,3.55
2023-05-22T04:03:52.164Z,3.63
2023-05-22T04:09:14.397Z,2.97
2023-05-22T04:14:37.589Z,3.85
2023-05-22T04:19:59.800Z,3.53
2023-05-22T04:25:21.710Z,3.08
2023-05-22T04:30:45.657Z,3.25
2023-05-22T04:36:12.346Z,3.33
2023-05-22T04:41:34.580Z,3.22
2023-05-22T04:46:59.480Z,3.90
2023-05-22T04:52:21.916Z,3.25
2023-05-22T04:57:45.210Z,4.55
2023-05-22T05:03:11.840Z,3.72
2023-05-22T05:08:34.058Z,4.03
2023-05-22T05:13:56.489Z,4.43
2023-05-22T05:19:21.401Z,3.97
2023-05-22T05:24:43.511Z,3.67
2023-05-22T05:30:06.898Z,2.85
2023-05-22T05:35:43.961Z,2.83
2023-05-22T05:41:07.794Z,2.90
2023-05-22T05:46:31.453Z,3.00
2023-05-22T05:51:55.388Z,3.17
2023-05-22T05:57:18.607Z,2.80
2023-05-22T06:02:40.827Z,3.10
2023-05-22T06:08:15.561Z,3.13
2023-05-22T06:13:38.075Z,3.42
2023-05-22T06:19:01.393Z,3.42
2023-05-22T06:24:25.100Z,2.65
2023-05-22T06:29:47.397Z,3.15
2023-05-22T06:35:10.206Z,3.25
2023-05-22T06:40:33.979Z,3.60
2023-05-22T06:46:07.263Z,4.45
2023-05-22T06:51:55.234Z,3.53
2023-05-22T06:57:18.502Z,3.03
2023-05-22T07:02:41.095Z,4.50
2023-05-22T07:08:19.166Z,3.30
2023-05-22T07:13:42.596Z,2.95
2023-05-22T07:19:05.005Z,3.13
2023-05-22T07:24:27.180Z,4.57
2023-05-22T07:29:51.102Z,3.85
2023-05-22T07:35:14.121Z,2.97
2023-05-22T07:40:36.075Z,3.13
2023-05-22T07:45:59.942Z,3.97
2023-05-22T07:51:26.779Z,3.85
2023-05-22T07:56:49.637Z,3.30
2023-05-22T08:02:15.255Z,2.97
2023-05-22T08:07:37.148Z,3.90
2023-05-22T08:13:02.468Z,3.60
2023-05-22T08:18:28.072Z,2.75
2023-05-22T08:23:50.064Z,2.40
2023-05-22T08:29:12.189Z,3.83
2023-05-22T08:34:35.605Z,3.15
2023-05-22T08:39:57.690Z,4.90
2023-05-22T08:45:19.896Z,2.85
2023-05-22T08:50:43.851Z,3.22
2023-05-22T08:56:07.045Z,2.70
2023-05-22T09:01:29.247Z,3.75
2023-05-22T09:06:52.349Z,2.70
2023-05-22T09:12:14.172Z,2.70
2023-05-22T09:17:36.245Z,3.05
2023-05-22T09:22:59.390Z,2.15
2023-05-22T09:28:21.341Z,2.60
2023-05-22T09:33:45.417Z,2.97
2023-05-22T09:39:09.547Z,2.63
2023-05-22T09:44:31.568Z,1.80
2023-05-22T09:49:53.919Z,2.35
2023-05-22T09:55:17.480Z,2.17
2023-05-22T10:00:39.820Z,3.00
2023-05-22T10:06:01.980Z,2.55
2023-05-22T10:11:29.292Z,2.17
2023-05-22T10:16:51.443Z,2.30
2023-05-22T10:22:20.707Z,1.52
2023-05-22T10:27:43.867Z,1.60
2023-05-22T10:33:09.181Z,1.77
2023-05-22T10:38:48.467Z,2.30
2023-05-22T10:44:11.517Z,1.83
2023-05-22T10:49:33.669Z,1.95
2023-05-22T10:54:55.902Z,1.95
2023-05-22T11:00:21.349Z,2.55
2023-05-22T11:05:53.388Z,2.45
2023-05-22T11:11:18.283Z,3.00
2023-05-22T11:16:43.161Z,1.38
2023-05-22T11:22:06.103Z,1.90
2023-05-22T11:27:27.874Z,1.40
2023-05-22T11:32:52.073Z,1.80
2023-05-22T11:38:15.946Z,1.83
2023-05-22T11:43:37.827Z,1.85
2023-05-22T11:49:01.148Z,2.40
2023-05-22T11:54:23.991Z,2.40
2023-05-22T11:59:46.355Z,1.90
2023-05-22T12:05:11.989Z,1.90
2023-05-22T12:10:34.238Z,1.65
2023-05-22T12:16:00.359Z,1.52
2023-05-22T12:21:23.820Z,1.40
2023-05-22T12:26:50.713Z,1.88
2023-05-22T12:32:13.654Z,2.30
2023-05-22T12:37:37.364Z,1.75
2023-05-22T12:42:59.378Z,1.73
2023-05-22T12:48:21.072Z,1.55
2023-05-22T12:53:44.501Z,2.33
2023-05-22T12:59:06.060Z,1.42
2023-05-22T13:04:27.831Z,1.45
2023-05-22T13:09:50.968Z,1.60
2023-05-22T13:15:13.906Z,0.90
2023-05-22T13:20:37.324Z,2.03
2023-05-22T13:26:02.188Z,2.53
2023-05-22T13:31:24.003Z,1.15
2023-05-22T13:36:45.934Z,1.48
2023-05-22T13:42:09.605Z,1.75
2023-05-22T13:47:31.546Z,1.38
2023-05-22T13:52:53.768Z,1.60
2023-05-22T13:58:16.863Z,1.92
2023-05-22T14:03:38.934Z,1.50
2023-05-22T14:09:01.264Z,1.90
2023-05-22T14:14:24.708Z,1.45
2023-05-22T14:19:46.428Z,2.38
2023-05-22T14:25:09.272Z,1.73
2023-05-22T14:30:32.413Z,1.77
2023-05-22T14:35:54.211Z,1.85
2023-05-22T14:41:16.322Z,1.50
2023-05-22T14:46:39.324Z,1.98
2023-05-22T14:52:01.754Z,1.60
2023-05-22T14:57:23.566Z,2.10
2023-05-22T15:02:47.193Z,2.10
2023-05-22T15:08:09.666Z,1.95
2023-05-22T15:13:31.373Z,1.60
2023-05-22T15:18:55.045Z,1.73
2023-05-22T15:24:17.586Z,2.20
2023-05-22T15:29:39.296Z,1.75
2023-05-22T15:35:02.755Z,1.60
2023-05-22T15:40:25.080Z,2.17
2023-05-22T15:45:48.084Z,2.63
2023-05-22T15:51:11.251Z,4.25
2023-05-22T15:56:33.995Z,2.28
2023-05-22T16:01:55.923Z,2.03
2023-05-22T16:07:20.190Z,3.15
2023-05-22T16:12:42.763Z,3.40
2023-05-22T16:18:05.118Z,3.80
2023-05-22T16:23:28.385Z,2.83
2023-05-22T16:28:50.505Z,4.30
2023-05-22T16:34:12.527Z,3.47
2023-05-22T16:39:35.915Z,3.22
2023-05-22T16:44:57.753Z,3.20
2023-05-22T16:50:19.483Z,3.47
2023-05-22T16:55:43.075Z,3.55
2023-05-22T17:01:06.416Z,4.40
2023-05-22T17:06:29.287Z,4.50
2023-05-22T17:11:52.548Z,3.95
2023-05-22T17:17:14.974Z,3.45
2023-05-22T17:22:37.661Z,5.18
2023-05-22T17:28:00.747Z,5.07
2023-05-22T17:33:23.096Z,3.47
2023-05-22T17:38:45.250Z,2.50
2023-05-22T17:44:08.674Z,3.90
2023-05-22T17:49:30.877Z,8.25
2023-05-22T17:54:53.236Z,3.53
2023-05-22T18:00:17.835Z,2.67
2023-05-22T18:05:40.243Z,2.45
2023-05-22T18:11:02.412Z,2.38
2023-05-22T18:16:27.525Z,2.22
2023-05-22T18:21:49.406Z,2.80
2023-05-22T18:27:11.566Z,2.30
2023-05-22T18:32:35.033Z,2.40
2023-05-22T18:37:58.784Z,2.10
2023-05-22T18:43:23.793Z,2.70
2023-05-22T18:48:46.933Z,1.90
2023-05-22T18:54:08.902Z,3.63
2023-05-22T18:59:30.763Z,2.85
2023-05-22T19:04:53.824Z,2.97
2023-05-22T19:10:15.785Z,2.90
2023-05-22T19:15:38.475Z,2.47
2023-05-22T19:21:02.015Z,2.42
2023-05-22T19:26:23.940Z,2.78
2023-05-22T19:31:45.704Z,2.83
2023-05-22T19:37:09.393Z,2.25
2023-05-22T19:42:31.521Z,3.10
2023-05-22T19:47:53.766Z,2.03
2023-05-22T19:53:17.020Z,3.28
2023-05-22T19:58:39.463Z,1.75
2023-05-22T20:04:01.232Z,1.65
2023-05-22T20:09:24.526Z,1.83
2023-05-22T20:14:46.320Z,1.80
2023-05-22T20:20:09.863Z,1.92
2023-05-22T20:25:33.405Z,2.05
2023-05-22T20:30:55.287Z,2.50
2023-05-22T20:36:18.848Z,3.50
2023-05-22T20:41:42.728Z,4.55
2023-05-22T20:47:04.747Z,3.15
2023-05-22T20:52:30.347Z,5.07
2023-05-22T20:57:53.591Z,3.70
2023-05-22T21:03:15.993Z,2.58
2023-05-22T21:08:37.853Z,2.28
2023-05-22T21:14:01.434Z,2.40
2023-05-22T21:19:23.428Z,2.60
2023-05-22T21:24:45.354Z,2.78
2023-05-22T21:30:09.724Z,2.22
2023-05-22T21:35:31.661Z,2.50
2023-05-22T21:40:53.559Z,1.60
2023-05-22T21:46:16.796Z,1.95
2023-05-22T21:51:38.506Z,1.70
2023-05-22T21:57:00.642Z,1.55
2023-05-22T22:02:24.194Z,2.10
2023-05-22T22:07:46.155Z,2.72
2023-05-22T22:13:07.930Z,1.80
2023-05-22T22:18:33.483Z,2.03
2023-05-22T22:23:56.001Z,2.10
2023-05-22T22:29:17.842Z,2.35
2023-05-22T22:34:42.081Z,2.08
2023-05-22T22:40:05.297Z,1.65
2023-05-22T22:45:27.315Z,1.92
2023-05-22T22:50:52.492Z,2.28
2023-05-22T22:56:14.748Z,2.15
2023-05-22T23:01:36.651Z,2.50
2023-05-22T23:07:00.271Z,2.85
2023-05-22T23:12:22.765Z,3.22
2023-05-22T23:17:45.044Z,3.10
2023-05-22T23:23:08.483Z,2.45
2023-05-22T23:28:30.498Z,2.97
2023-05-22T23:33:52.312Z,3.05
2023-05-22T23:39:15.804Z,4.80
2023-05-22T23:44:37.863Z,5.80
2023-05-22T23:50:06.828Z,5.78
2023-05-22T23:55:29.924Z,5.95
